sensor_id;sensor_type;location;lat;lon;timestamp;P1;durP1;ratioP1;P2;durP2;ratioP2
2039;SDS011;1025;42.686;23.350;2022-08-01T00:02:15;1.53;;;1.43;;
2039;SDS011;1025;42.686;23.350;2022-08-01T00:04:41;1.53;;;1.47;;
2039;SDS011;1025;42.686;23.350;2022-08-01T00:07:08;1.80;;;1.67;;
2039;SDS011;1025;42.686;23.350;2022-08-01T00:09:34;1.47;;;1.37;;
2039;SDS011;1025;42.686;23.350;2022-08-01T00:12:01;1.77;;;1.30;;
2039;SDS011;1025;42.686;23.350;2022-08-01T00:14:29;1.70;;;1.60;;
2039;SDS011;1025;42.686;23.350;2022-08-01T00:16:56;2.23;;;2.13;;
2039;SDS011;1025;42.686;23.350;2022-08-01T00:19:24;11.33;;;2.20;;
2039;SDS011;1025;42.686;23.350;2022-08-01T00:21:50;2.30;;;2.20;;
2039;SDS011;1025;42.686;23.350;2022-08-01T00:24:17;2.27;;;2.07;;
2039;SDS011;1025;42.686;23.350;2022-08-01T00:26:43;2.53;;;2.33;;
2039;SDS011;1025;42.686;23.350;2022-08-01T00:29:10;4.30;;;3.33;;
2039;SDS011;1025;42.686;23.350;2022-08-01T00:31:37;3.77;;;3.40;;
2039;SDS011;1025;42.686;23.350;2022-08-01T00:34:03;3.00;;;2.73;;
2039;SDS011;1025;42.686;23.350;2022-08-01T00:36:31;2.37;;;2.27;;
2039;SDS011;1025;42.686;23.350;2022-08-01T00:38:57;3.70;;;3.40;;
2039;SDS011;1025;42.686;23.350;2022-08-01T00:41:24;2.87;;;2.63;;
2039;SDS011;1025;42.686;23.350;2022-08-01T00:43:51;2.27;;;2.17;;
2039;SDS011;1025;42.686;23.350;2022-08-01T00:46:17;2.50;;;2.40;;
2039;SDS011;1025;42.686;23.350;2022-08-01T00:48:44;3.47;;;3.17;;
2039;SDS011;1025;42.686;23.350;2022-08-01T00:51:10;3.33;;;3.13;;
2039;SDS011;1025;42.686;23.350;2022-08-01T00:53:39;2.60;;;2.40;;
2039;SDS011;1025;42.686;23.350;2022-08-01T00:56:06;2.20;;;2.10;;
2039;SDS011;1025;42.686;23.350;2022-08-01T00:58:33;3.20;;;2.90;;
2039;SDS011;1025;42.686;23.350;2022-08-01T01:00:59;2.57;;;2.43;;
2039;SDS011;1025;42.686;23.350;2022-08-01T01:03:26;3.27;;;3.07;;
2039;SDS011;1025;42.686;23.350;2022-08-01T01:05:55;2.70;;;2.50;;
2039;SDS011;1025;42.686;23.350;2022-08-01T01:08:24;2.23;;;2.13;;
2039;SDS011;1025;42.686;23.350;2022-08-01T01:10:56;2.93;;;2.73;;
2039;SDS011;1025;42.686;23.350;2022-08-01T01:13:25;3.47;;;3.27;;
2039;SDS011;1025;42.686;23.350;2022-08-01T01:15:55;2.40;;;2.30;;
2039;SDS011;1025;42.686;23.350;2022-08-01T01:18:24;2.90;;;2.70;;
2039;SDS011;1025;42.686;23.350;2022-08-01T01:20:52;2.57;;;2.47;;
2039;SDS011;1025;42.686;23.350;2022-08-01T01:23:32;2.60;;;2.40;;
2039;SDS011;1025;42.686;23.350;2022-08-01T01:26:15;3.20;;;3.00;;
2039;SDS011;1025;42.686;23.350;2022-08-01T01:28:55;2.60;;;2.50;;
2039;SDS011;1025;42.686;23.350;2022-08-01T01:31:23;2.97;;;2.77;;
2039;SDS011;1025;42.686;23.350;2022-08-01T01:33:50;3.10;;;3.00;;
2039;SDS011;1025;42.686;23.350;2022-08-01T01:36:18;1.87;;;1.77;;
2039;SDS011;1025;42.686;23.350;2022-08-01T01:38:45;2.70;;;2.40;;
2039;SDS011;1025;42.686;23.350;2022-08-01T01:41:14;2.40;;;2.20;;
2039;SDS011;1025;42.686;23.350;2022-08-01T01:43:42;3.43;;;2.20;;
2039;SDS011;1025;42.686;23.350;2022-08-01T01:46:10;1.40;;;1.40;;
2039;SDS011;1025;42.686;23.350;2022-08-01T01:48:37;4.73;;;2.50;;
2039;SDS011;1025;42.686;23.350;2022-08-01T01:51:04;2.20;;;2.10;;
2039;SDS011;1025;42.686;23.350;2022-08-01T01:53:32;2.07;;;1.93;;
2039;SDS011;1025;42.686;23.350;2022-08-01T01:55:59;2.20;;;2.10;;
2039;SDS011;1025;42.686;23.350;2022-08-01T01:58:27;3.57;;;2.57;;
2039;SDS011;1025;42.686;23.350;2022-08-01T02:00:55;2.73;;;2.60;;
2039;SDS011;1025;42.686;23.350;2022-08-01T02:03:24;2.50;;;2.30;;
2039;SDS011;1025;42.686;23.350;2022-08-01T02:05:52;6.60;;;1.93;;
2039;SDS011;1025;42.686;23.350;2022-08-01T02:08:20;2.23;;;2.10;;
2039;SDS011;1025;42.686;23.350;2022-08-01T02:10:48;2.80;;;2.63;;
2039;SDS011;1025;42.686;23.350;2022-08-01T02:13:30;3.27;;;2.43;;
2039;SDS011;1025;42.686;23.350;2022-08-01T02:15:58;2.20;;;2.10;;
2039;SDS011;1025;42.686;23.350;2022-08-01T02:18:26;1.93;;;1.83;;
2039;SDS011;1025;42.686;23.350;2022-08-01T02:20:52;2.67;;;2.47;;
2039;SDS011;1025;42.686;23.350;2022-08-01T02:23:20;2.13;;;2.03;;
2039;SDS011;1025;42.686;23.350;2022-08-01T02:25:49;2.23;;;2.00;;
2039;SDS011;1025;42.686;23.350;2022-08-01T02:28:17;2.80;;;2.60;;
2039;SDS011;1025;42.686;23.350;2022-08-01T02:30:48;1.73;;;1.40;;
2039;SDS011;1025;42.686;23.350;2022-08-01T02:33:16;2.40;;;2.23;;
2039;SDS011;1025;42.686;23.350;2022-08-01T02:35:46;2.50;;;2.30;;
2039;SDS011;1025;42.686;23.350;2022-08-01T02:38:13;1.80;;;1.70;;
2039;SDS011;1025;42.686;23.350;2022-08-01T02:40:41;2.50;;;2.00;;
2039;SDS011;1025;42.686;23.350;2022-08-01T02:43:09;2.63;;;2.23;;
2039;SDS011;1025;42.686;23.350;2022-08-01T02:45:37;2.50;;;1.97;;
2039;SDS011;1025;42.686;23.350;2022-08-01T02:48:06;2.53;;;2.43;;
2039;SDS011;1025;42.686;23.350;2022-08-01T02:50:34;2.40;;;2.20;;
2039;SDS011;1025;42.686;23.350;2022-08-01T02:53:02;1.70;;;1.60;;
2039;SDS011;1025;42.686;23.350;2022-08-01T02:55:30;2.33;;;1.97;;
2039;SDS011;1025;42.686;23.350;2022-08-01T02:57:58;1.77;;;1.67;;
2039;SDS011;1025;42.686;23.350;2022-08-01T03:00:25;2.23;;;2.03;;
2039;SDS011;1025;42.686;23.350;2022-08-01T03:02:52;1.27;;;1.27;;
2039;SDS011;1025;42.686;23.350;2022-08-01T03:05:21;2.13;;;2.00;;
2039;SDS011;1025;42.686;23.350;2022-08-01T03:07:49;1.37;;;1.20;;
2039;SDS011;1025;42.686;23.350;2022-08-01T03:10:17;2.10;;;2.00;;
2039;SDS011;1025;42.686;23.350;2022-08-01T03:12:44;2.30;;;2.20;;
2039;SDS011;1025;42.686;23.350;2022-08-01T03:15:12;2.53;;;2.33;;
2039;SDS011;1025;42.686;23.350;2022-08-01T03:17:40;1.90;;;1.63;;
2039;SDS011;1025;42.686;23.350;2022-08-01T03:20:07;1.23;;;1.13;;
2039;SDS011;1025;42.686;23.350;2022-08-01T03:22:35;4.93;;;2.63;;
2039;SDS011;1025;42.686;23.350;2022-08-01T03:25:02;1.73;;;1.63;;
2039;SDS011;1025;42.686;23.350;2022-08-01T03:27:30;1.50;;;1.40;;
2039;SDS011;1025;42.686;23.350;2022-08-01T03:29:57;2.00;;;1.90;;
2039;SDS011;1025;42.686;23.350;2022-08-01T03:32:24;1.03;;;1.03;;
2039;SDS011;1025;42.686;23.350;2022-08-01T03:34:51;2.93;;;2.73;;
2039;SDS011;1025;42.686;23.350;2022-08-01T03:37:19;1.77;;;1.67;;
2039;SDS011;1025;42.686;23.350;2022-08-01T03:39:50;3.10;;;2.90;;
2039;SDS011;1025;42.686;23.350;2022-08-01T03:42:19;2.40;;;2.30;;
2039;SDS011;1025;42.686;23.350;2022-08-01T03:44:59;1.90;;;1.80;;
2039;SDS011;1025;42.686;23.350;2022-08-01T03:47:31;2.03;;;1.90;;
2039;SDS011;1025;42.686;23.350;2022-08-01T03:49:58;2.03;;;1.93;;
2039;SDS011;1025;42.686;23.350;2022-08-01T03:52:25;2.07;;;1.87;;
2039;SDS011;1025;42.686;23.350;2022-08-01T03:54:54;1.77;;;1.67;;
2039;SDS011;1025;42.686;23.350;2022-08-01T03:57:22;2.60;;;2.00;;
2039;SDS011;1025;42.686;23.350;2022-08-01T03:59:51;2.17;;;2.07;;
2039;SDS011;1025;42.686;23.350;2022-08-01T04:02:19;1.70;;;1.60;;
2039;SDS011;1025;42.686;23.350;2022-08-01T04:04:47;1.93;;;1.83;;
2039;SDS011;1025;42.686;23.350;2022-08-01T04:07:23;2.80;;;2.13;;
2039;SDS011;1025;42.686;23.350;2022-08-01T04:09:50;2.60;;;2.40;;
2039;SDS011;1025;42.686;23.350;2022-08-01T04:12:17;2.53;;;2.33;;
2039;SDS011;1025;42.686;23.350;2022-08-01T04:14:44;2.43;;;2.33;;
2039;SDS011;1025;42.686;23.350;2022-08-01T04:17:12;2.30;;;2.20;;
2039;SDS011;1025;42.686;23.350;2022-08-01T04:19:39;2.30;;;2.13;;
2039;SDS011;1025;42.686;23.350;2022-08-01T04:22:05;1.97;;;1.87;;
2039;SDS011;1025;42.686;23.350;2022-08-01T04:24:32;3.60;;;2.13;;
2039;SDS011;1025;42.686;23.350;2022-08-01T04:27:00;3.30;;;3.10;;
2039;SDS011;1025;42.686;23.350;2022-08-01T04:29:27;2.97;;;2.77;;
2039;SDS011;1025;42.686;23.350;2022-08-01T04:31:55;2.90;;;2.70;;
2039;SDS011;1025;42.686;23.350;2022-08-01T04:34:25;2.73;;;2.60;;
2039;SDS011;1025;42.686;23.350;2022-08-01T04:36:52;2.40;;;2.20;;
2039;SDS011;1025;42.686;23.350;2022-08-01T04:39:20;6.93;;;3.10;;
2039;SDS011;1025;42.686;23.350;2022-08-01T04:41:49;3.10;;;2.80;;
2039;SDS011;1025;42.686;23.350;2022-08-01T04:44:16;4.23;;;3.87;;
2039;SDS011;1025;42.686;23.350;2022-08-01T04:46:42;3.57;;;2.07;;
2039;SDS011;1025;42.686;23.350;2022-08-01T04:49:10;6.53;;;3.20;;
2039;SDS011;1025;42.686;23.350;2022-08-01T04:51:50;2.93;;;2.70;;
2039;SDS011;1025;42.686;23.350;2022-08-01T04:54:17;4.47;;;4.17;;
2039;SDS011;1025;42.686;23.350;2022-08-01T04:56:46;7.83;;;3.00;;
2039;SDS011;1025;42.686;23.350;2022-08-01T04:59:13;3.53;;;3.20;;
2039;SDS011;1025;42.686;23.350;2022-08-01T05:01:56;6.40;;;2.63;;
2039;SDS011;1025;42.686;23.350;2022-08-01T05:04:23;5.17;;;3.57;;
2039;SDS011;1025;42.686;23.350;2022-08-01T05:06:51;3.33;;;3.10;;
2039;SDS011;1025;42.686;23.350;2022-08-01T05:09:17;4.73;;;3.67;;
2039;SDS011;1025;42.686;23.350;2022-08-01T05:11:44;3.30;;;3.00;;
2039;SDS011;1025;42.686;23.350;2022-08-01T05:14:11;2.50;;;2.40;;
2039;SDS011;1025;42.686;23.350;2022-08-01T05:16:37;3.00;;;2.80;;
2039;SDS011;1025;42.686;23.350;2022-08-01T05:19:04;3.90;;;2.97;;
2039;SDS011;1025;42.686;23.350;2022-08-01T05:21:30;2.60;;;2.40;;
2039;SDS011;1025;42.686;23.350;2022-08-01T05:23:58;5.63;;;2.63;;
2039;SDS011;1025;42.686;23.350;2022-08-01T05:26:25;3.00;;;2.63;;
2039;SDS011;1025;42.686;23.350;2022-08-01T05:28:52;2.20;;;2.10;;
2039;SDS011;1025;42.686;23.350;2022-08-01T05:31:18;2.07;;;1.97;;
2039;SDS011;1025;42.686;23.350;2022-08-01T05:33:45;7.63;;;2.33;;
2039;SDS011;1025;42.686;23.350;2022-08-01T05:36:11;2.27;;;2.17;;
2039;SDS011;1025;42.686;23.350;2022-08-01T05:38:38;2.70;;;2.60;;
2039;SDS011;1025;42.686;23.350;2022-08-01T05:41:06;2.40;;;2.30;;
2039;SDS011;1025;42.686;23.350;2022-08-01T05:43:32;2.40;;;2.20;;
2039;SDS011;1025;42.686;23.350;2022-08-01T05:45:59;2.40;;;2.20;;
2039;SDS011;1025;42.686;23.350;2022-08-01T05:48:26;2.37;;;2.27;;
2039;SDS011;1025;42.686;23.350;2022-08-01T05:50:53;2.30;;;2.20;;
2039;SDS011;1025;42.686;23.350;2022-08-01T05:53:20;4.60;;;2.47;;
2039;SDS011;1025;42.686;23.350;2022-08-01T05:55:46;2.40;;;2.20;;
2039;SDS011;1025;42.686;23.350;2022-08-01T05:58:14;2.50;;;2.40;;
2039;SDS011;1025;42.686;23.350;2022-08-01T06:00:41;2.03;;;1.93;;
2039;SDS011;1025;42.686;23.350;2022-08-01T06:03:07;1.87;;;1.77;;
2039;SDS011;1025;42.686;23.350;2022-08-01T06:05:34;1.93;;;1.83;;
2039;SDS011;1025;42.686;23.350;2022-08-01T06:08:00;2.37;;;1.50;;
2039;SDS011;1025;42.686;23.350;2022-08-01T06:10:27;2.20;;;2.00;;
2039;SDS011;1025;42.686;23.350;2022-08-01T06:12:53;2.50;;;2.30;;
2039;SDS011;1025;42.686;23.350;2022-08-01T06:15:21;1.47;;;1.37;;
2039;SDS011;1025;42.686;23.350;2022-08-01T06:17:48;3.10;;;2.00;;
2039;SDS011;1025;42.686;23.350;2022-08-01T06:20:14;1.97;;;1.70;;
2039;SDS011;1025;42.686;23.350;2022-08-01T06:22:41;1.77;;;1.67;;
2039;SDS011;1025;42.686;23.350;2022-08-01T06:25:08;1.70;;;1.60;;
2039;SDS011;1025;42.686;23.350;2022-08-01T06:27:34;2.50;;;1.90;;
2039;SDS011;1025;42.686;23.350;2022-08-01T06:30:01;1.80;;;1.70;;
2039;SDS011;1025;42.686;23.350;2022-08-01T06:32:29;2.33;;;2.13;;
2039;SDS011;1025;42.686;23.350;2022-08-01T06:34:56;2.00;;;1.90;;
2039;SDS011;1025;42.686;23.350;2022-08-01T06:37:22;2.57;;;2.37;;
2039;SDS011;1025;42.686;23.350;2022-08-01T06:39:49;1.53;;;1.43;;
2039;SDS011;1025;42.686;23.350;2022-08-01T06:42:16;1.60;;;1.50;;
2039;SDS011;1025;42.686;23.350;2022-08-01T06:44:42;1.30;;;1.20;;
2039;SDS011;1025;42.686;23.350;2022-08-01T06:47:09;3.67;;;1.20;;
2039;SDS011;1025;42.686;23.350;2022-08-01T06:49:37;1.90;;;1.27;;
2039;SDS011;1025;42.686;23.350;2022-08-01T06:52:03;2.10;;;1.67;;
2039;SDS011;1025;42.686;23.350;2022-08-01T06:54:30;2.13;;;1.90;;
2039;SDS011;1025;42.686;23.350;2022-08-01T06:56:56;1.60;;;1.50;;
2039;SDS011;1025;42.686;23.350;2022-08-01T06:59:23;1.40;;;1.40;;
2039;SDS011;1025;42.686;23.350;2022-08-01T07:01:50;1.53;;;1.43;;
2039;SDS011;1025;42.686;23.350;2022-08-01T07:04:16;2.17;;;2.07;;
2039;SDS011;1025;42.686;23.350;2022-08-01T07:06:44;1.97;;;1.50;;
2039;SDS011;1025;42.686;23.350;2022-08-01T07:09:11;2.87;;;1.30;;
2039;SDS011;1025;42.686;23.350;2022-08-01T07:11:37;2.33;;;1.53;;
2039;SDS011;1025;42.686;23.350;2022-08-01T07:14:04;3.00;;;1.80;;
2039;SDS011;1025;42.686;23.350;2022-08-01T07:16:30;1.73;;;1.63;;
2039;SDS011;1025;42.686;23.350;2022-08-01T07:18:57;1.60;;;1.50;;
2039;SDS011;1025;42.686;23.350;2022-08-01T07:21:23;1.23;;;1.17;;
2039;SDS011;1025;42.686;23.350;2022-08-01T07:23:51;1.10;;;1.07;;
2039;SDS011;1025;42.686;23.350;2022-08-01T07:26:18;1.67;;;1.57;;
2039;SDS011;1025;42.686;23.350;2022-08-01T07:28:45;1.50;;;1.40;;
2039;SDS011;1025;42.686;23.350;2022-08-01T07:31:11;1.50;;;1.40;;
2039;SDS011;1025;42.686;23.350;2022-08-01T07:33:38;2.40;;;1.73;;
2039;SDS011;1025;42.686;23.350;2022-08-01T07:36:05;1.50;;;1.40;;
2039;SDS011;1025;42.686;23.350;2022-08-01T07:38:31;1.33;;;1.20;;
2039;SDS011;1025;42.686;23.350;2022-08-01T07:40:59;1.90;;;1.80;;
2039;SDS011;1025;42.686;23.350;2022-08-01T07:43:26;1.30;;;1.30;;
2039;SDS011;1025;42.686;23.350;2022-08-01T07:45:52;2.20;;;1.10;;
2039;SDS011;1025;42.686;23.350;2022-08-01T07:48:19;3.03;;;1.60;;
2039;SDS011;1025;42.686;23.350;2022-08-01T07:50:49;1.03;;;1.03;;
2039;SDS011;1025;42.686;23.350;2022-08-01T07:53:15;1.23;;;1.23;;
2039;SDS011;1025;42.686;23.350;2022-08-01T07:55:42;1.20;;;1.10;;
2039;SDS011;1025;42.686;23.350;2022-08-01T07:58:10;3.00;;;1.30;;
2039;SDS011;1025;42.686;23.350;2022-08-01T08:00:36;2.60;;;1.50;;
2039;SDS011;1025;42.686;23.350;2022-08-01T08:03:03;2.03;;;1.93;;
2039;SDS011;1025;42.686;23.350;2022-08-01T08:05:30;1.53;;;1.43;;
2039;SDS011;1025;42.686;23.350;2022-08-01T08:07:58;1.40;;;1.30;;
2039;SDS011;1025;42.686;23.350;2022-08-01T08:10:24;1.30;;;1.30;;
2039;SDS011;1025;42.686;23.350;2022-08-01T08:12:51;2.23;;;1.60;;
2039;SDS011;1025;42.686;23.350;2022-08-01T08:15:19;1.60;;;1.50;;
2039;SDS011;1025;42.686;23.350;2022-08-01T08:17:45;3.00;;;2.70;;
2039;SDS011;1025;42.686;23.350;2022-08-01T08:20:12;1.60;;;1.50;;
2039;SDS011;1025;42.686;23.350;2022-08-01T08:22:39;1.37;;;1.33;;
2039;SDS011;1025;42.686;23.350;2022-08-01T08:25:06;1.90;;;1.80;;
2039;SDS011;1025;42.686;23.350;2022-08-01T08:27:32;1.87;;;1.77;;
2039;SDS011;1025;42.686;23.350;2022-08-01T08:29:59;1.60;;;1.40;;
2039;SDS011;1025;42.686;23.350;2022-08-01T08:32:27;1.67;;;1.57;;
2039;SDS011;1025;42.686;23.350;2022-08-01T08:34:53;2.60;;;1.70;;
2039;SDS011;1025;42.686;23.350;2022-08-01T08:37:20;1.20;;;1.20;;
2039;SDS011;1025;42.686;23.350;2022-08-01T08:39:47;1.60;;;1.50;;
2039;SDS011;1025;42.686;23.350;2022-08-01T08:42:13;1.70;;;1.60;;
2039;SDS011;1025;42.686;23.350;2022-08-01T08:44:40;1.67;;;1.57;;
2039;SDS011;1025;42.686;23.350;2022-08-01T08:47:07;1.10;;;1.10;;
2039;SDS011;1025;42.686;23.350;2022-08-01T08:49:35;1.50;;;1.40;;
2039;SDS011;1025;42.686;23.350;2022-08-01T08:52:02;3.10;;;1.20;;
2039;SDS011;1025;42.686;23.350;2022-08-01T08:54:29;1.40;;;1.30;;
2039;SDS011;1025;42.686;23.350;2022-08-01T08:56:56;1.37;;;1.27;;
2039;SDS011;1025;42.686;23.350;2022-08-01T08:59:23;1.70;;;1.60;;
2039;SDS011;1025;42.686;23.350;2022-08-01T09:01:50;1.50;;;1.40;;
2039;SDS011;1025;42.686;23.350;2022-08-01T09:04:17;1.13;;;1.03;;
2039;SDS011;1025;42.686;23.350;2022-08-01T09:06:45;1.67;;;1.57;;
2039;SDS011;1025;42.686;23.350;2022-08-01T09:09:12;1.50;;;1.40;;
2039;SDS011;1025;42.686;23.350;2022-08-01T09:11:38;1.30;;;1.30;;
2039;SDS011;1025;42.686;23.350;2022-08-01T09:14:06;1.23;;;1.13;;
2039;SDS011;1025;42.686;23.350;2022-08-01T09:16:33;1.30;;;1.30;;
2039;SDS011;1025;42.686;23.350;2022-08-01T09:19:07;0.90;;;0.90;;
2039;SDS011;1025;42.686;23.350;2022-08-01T09:21:34;2.00;;;1.70;;
2039;SDS011;1025;42.686;23.350;2022-08-01T09:24:02;0.90;;;0.90;;
2039;SDS011;1025;42.686;23.350;2022-08-01T09:26:32;1.40;;;1.40;;
2039;SDS011;1025;42.686;23.350;2022-08-01T09:28:59;1.70;;;1.60;;
2039;SDS011;1025;42.686;23.350;2022-08-01T09:31:27;1.17;;;1.07;;
2039;SDS011;1025;42.686;23.350;2022-08-01T09:33:54;2.30;;;1.50;;
2039;SDS011;1025;42.686;23.350;2022-08-01T09:36:22;1.53;;;1.43;;
2039;SDS011;1025;42.686;23.350;2022-08-01T09:38:49;0.83;;;0.83;;
2039;SDS011;1025;42.686;23.350;2022-08-01T09:41:17;1.03;;;0.97;;
2039;SDS011;1025;42.686;23.350;2022-08-01T09:43:54;1.83;;;1.73;;
2039;SDS011;1025;42.686;23.350;2022-08-01T09:46:20;1.23;;;1.20;;
2039;SDS011;1025;42.686;23.350;2022-08-01T09:48:57;1.50;;;1.40;;
2039;SDS011;1025;42.686;23.350;2022-08-01T09:51:27;3.00;;;1.33;;
2039;SDS011;1025;42.686;23.350;2022-08-01T09:53:54;1.50;;;1.40;;
2039;SDS011;1025;42.686;23.350;2022-08-01T09:56:22;1.83;;;1.73;;
2039;SDS011;1025;42.686;23.350;2022-08-01T09:58:53;5.03;;;2.00;;
2039;SDS011;1025;42.686;23.350;2022-08-01T10:01:20;1.50;;;1.40;;
2039;SDS011;1025;42.686;23.350;2022-08-01T10:03:47;1.60;;;1.50;;
2039;SDS011;1025;42.686;23.350;2022-08-01T10:06:29;1.13;;;1.13;;
2039;SDS011;1025;42.686;23.350;2022-08-01T10:08:56;1.00;;;1.00;;
2039;SDS011;1025;42.686;23.350;2022-08-01T10:11:23;1.27;;;1.17;;
2039;SDS011;1025;42.686;23.350;2022-08-01T10:13:50;1.80;;;1.30;;
2039;SDS011;1025;42.686;23.350;2022-08-01T10:16:17;1.20;;;1.20;;
2039;SDS011;1025;42.686;23.350;2022-08-01T10:18:45;1.47;;;1.40;;
2039;SDS011;1025;42.686;23.350;2022-08-01T10:21:12;1.30;;;1.30;;
2039;SDS011;1025;42.686;23.350;2022-08-01T10:23:39;1.60;;;1.50;;
2039;SDS011;1025;42.686;23.350;2022-08-01T10:26:08;1.33;;;1.33;;
2039;SDS011;1025;42.686;23.350;2022-08-01T10:28:37;1.40;;;1.30;;
2039;SDS011;1025;42.686;23.350;2022-08-01T10:31:04;0.80;;;0.80;;
2039;SDS011;1025;42.686;23.350;2022-08-01T10:33:32;1.70;;;1.60;;
2039;SDS011;1025;42.686;23.350;2022-08-01T10:36:01;0.90;;;0.90;;
2039;SDS011;1025;42.686;23.350;2022-08-01T10:38:27;1.20;;;1.10;;
2039;SDS011;1025;42.686;23.350;2022-08-01T10:40:54;1.53;;;1.43;;
2039;SDS011;1025;42.686;23.350;2022-08-01T10:43:21;2.30;;;1.93;;
2039;SDS011;1025;42.686;23.350;2022-08-01T10:45:49;1.60;;;1.50;;
2039;SDS011;1025;42.686;23.350;2022-08-01T10:48:18;1.37;;;1.37;;
2039;SDS011;1025;42.686;23.350;2022-08-01T10:50:46;1.40;;;1.30;;
2039;SDS011;1025;42.686;23.350;2022-08-01T10:53:14;1.67;;;1.57;;
2039;SDS011;1025;42.686;23.350;2022-08-01T10:55:47;2.50;;;1.70;;
2039;SDS011;1025;42.686;23.350;2022-08-01T10:58:19;0.90;;;0.90;;
2039;SDS011;1025;42.686;23.350;2022-08-01T11:00:45;1.53;;;1.43;;
2039;SDS011;1025;42.686;23.350;2022-08-01T11:03:13;2.30;;;1.20;;
2039;SDS011;1025;42.686;23.350;2022-08-01T11:05:40;4.40;;;1.60;;
2039;SDS011;1025;42.686;23.350;2022-08-01T11:08:10;1.10;;;1.10;;
2039;SDS011;1025;42.686;23.350;2022-08-01T11:10:37;1.53;;;1.43;;
2039;SDS011;1025;42.686;23.350;2022-08-01T11:13:04;1.27;;;1.23;;
2039;SDS011;1025;42.686;23.350;2022-08-01T11:15:33;1.40;;;1.30;;
2039;SDS011;1025;42.686;23.350;2022-08-01T11:18:00;1.47;;;1.03;;
2039;SDS011;1025;42.686;23.350;2022-08-01T11:20:29;1.00;;;1.00;;
2039;SDS011;1025;42.686;23.350;2022-08-01T11:26:06;1.60;;;1.50;;
2039;SDS011;1025;42.686;23.350;2022-08-01T11:28:33;1.70;;;1.60;;
2039;SDS011;1025;42.686;23.350;2022-08-01T11:33:47;1.30;;;1.20;;
2039;SDS011;1025;42.686;23.350;2022-08-01T11:36:18;1.07;;;1.07;;
2039;SDS011;1025;42.686;23.350;2022-08-01T11:38:46;1.20;;;1.10;;
2039;SDS011;1025;42.686;23.350;2022-08-01T11:41:14;1.37;;;1.37;;
2039;SDS011;1025;42.686;23.350;2022-08-01T11:43:54;1.17;;;1.17;;
2039;SDS011;1025;42.686;23.350;2022-08-01T11:51:52;1.47;;;1.37;;
2039;SDS011;1025;42.686;23.350;2022-08-01T11:54:24;7.20;;;1.90;;
2039;SDS011;1025;42.686;23.350;2022-08-01T11:56:52;1.43;;;1.33;;
2039;SDS011;1025;42.686;23.350;2022-08-01T11:59:20;1.90;;;1.80;;
2039;SDS011;1025;42.686;23.350;2022-08-01T12:01:47;1.00;;;1.00;;
2039;SDS011;1025;42.686;23.350;2022-08-01T12:04:14;1.10;;;1.10;;
2039;SDS011;1025;42.686;23.350;2022-08-01T12:06:40;0.97;;;0.97;;
2039;SDS011;1025;42.686;23.350;2022-08-01T12:09:21;1.93;;;1.83;;
2039;SDS011;1025;42.686;23.350;2022-08-01T12:11:49;4.13;;;2.20;;
2039;SDS011;1025;42.686;23.350;2022-08-01T12:14:17;1.43;;;1.33;;
2039;SDS011;1025;42.686;23.350;2022-08-01T12:16:48;1.90;;;1.80;;
2039;SDS011;1025;42.686;23.350;2022-08-01T12:19:17;1.13;;;1.13;;
2039;SDS011;1025;42.686;23.350;2022-08-01T12:21:44;1.80;;;1.70;;
2039;SDS011;1025;42.686;23.350;2022-08-01T12:24:11;2.00;;;1.90;;
2039;SDS011;1025;42.686;23.350;2022-08-01T12:26:40;6.30;;;1.70;;
2039;SDS011;1025;42.686;23.350;2022-08-01T12:29:06;1.40;;;1.40;;
2039;SDS011;1025;42.686;23.350;2022-08-01T12:31:33;9.03;;;2.20;;
2039;SDS011;1025;42.686;23.350;2022-08-01T12:36:41;1.50;;;1.40;;
2039;SDS011;1025;42.686;23.350;2022-08-01T12:39:08;1.60;;;1.50;;
2039;SDS011;1025;42.686;23.350;2022-08-01T12:41:35;1.67;;;1.57;;
2039;SDS011;1025;42.686;23.350;2022-08-01T12:44:03;2.60;;;2.40;;
2039;SDS011;1025;42.686;23.350;2022-08-01T12:46:38;2.43;;;1.90;;
2039;SDS011;1025;42.686;23.350;2022-08-01T12:49:05;1.87;;;1.77;;
2039;SDS011;1025;42.686;23.350;2022-08-01T12:51:31;1.23;;;1.23;;
2039;SDS011;1025;42.686;23.350;2022-08-01T12:53:58;1.23;;;1.13;;
2039;SDS011;1025;42.686;23.350;2022-08-01T12:56:30;2.20;;;2.10;;
2039;SDS011;1025;42.686;23.350;2022-08-01T12:58:57;1.90;;;1.80;;
2039;SDS011;1025;42.686;23.350;2022-08-01T13:01:26;1.60;;;1.43;;
2039;SDS011;1025;42.686;23.350;2022-08-01T13:03:59;2.00;;;1.90;;
2039;SDS011;1025;42.686;23.350;2022-08-01T13:06:28;2.40;;;2.10;;
2039;SDS011;1025;42.686;23.350;2022-08-01T13:08:55;2.40;;;1.50;;
2039;SDS011;1025;42.686;23.350;2022-08-01T13:11:30;1.20;;;1.20;;
2039;SDS011;1025;42.686;23.350;2022-08-01T13:13:57;2.30;;;2.20;;
2039;SDS011;1025;42.686;23.350;2022-08-01T13:16:24;4.20;;;2.03;;
2039;SDS011;1025;42.686;23.350;2022-08-01T13:18:52;1.63;;;1.53;;
2039;SDS011;1025;42.686;23.350;2022-08-01T13:21:20;1.43;;;1.33;;
2039;SDS011;1025;42.686;23.350;2022-08-01T13:24:00;0.90;;;0.90;;
2039;SDS011;1025;42.686;23.350;2022-08-01T13:26:39;1.47;;;1.37;;
2039;SDS011;1025;42.686;23.350;2022-08-01T13:29:06;2.03;;;1.87;;
2039;SDS011;1025;42.686;23.350;2022-08-01T13:31:34;1.70;;;1.70;;
2039;SDS011;1025;42.686;23.350;2022-08-01T13:34:02;1.50;;;1.40;;
2039;SDS011;1025;42.686;23.350;2022-08-01T13:36:28;3.50;;;3.30;;
2039;SDS011;1025;42.686;23.350;2022-08-01T13:38:56;1.93;;;1.83;;
2039;SDS011;1025;42.686;23.350;2022-08-01T13:41:36;3.07;;;2.03;;
2039;SDS011;1025;42.686;23.350;2022-08-01T13:44:03;1.60;;;1.50;;
2039;SDS011;1025;42.686;23.350;2022-08-01T13:46:30;1.63;;;1.53;;
2039;SDS011;1025;42.686;23.350;2022-08-01T13:48:57;1.30;;;1.27;;
2039;SDS011;1025;42.686;23.350;2022-08-01T13:51:25;1.70;;;1.60;;
2039;SDS011;1025;42.686;23.350;2022-08-01T13:53:51;1.47;;;1.37;;
2039;SDS011;1025;42.686;23.350;2022-08-01T13:56:18;1.17;;;1.13;;
2039;SDS011;1025;42.686;23.350;2022-08-01T13:58:45;1.83;;;1.73;;
2039;SDS011;1025;42.686;23.350;2022-08-01T14:01:11;1.70;;;1.60;;
2039;SDS011;1025;42.686;23.350;2022-08-01T14:03:38;1.90;;;1.80;;
2039;SDS011;1025;42.686;23.350;2022-08-01T14:06:05;1.70;;;1.60;;
2039;SDS011;1025;42.686;23.350;2022-08-01T14:08:33;1.07;;;1.07;;
2039;SDS011;1025;42.686;23.350;2022-08-01T14:11:00;1.60;;;1.50;;
2039;SDS011;1025;42.686;23.350;2022-08-01T14:13:27;1.43;;;1.33;;
2039;SDS011;1025;42.686;23.350;2022-08-01T14:15:53;1.50;;;1.40;;
2039;SDS011;1025;42.686;23.350;2022-08-01T14:18:20;2.27;;;2.17;;
2039;SDS011;1025;42.686;23.350;2022-08-01T14:20:47;1.70;;;1.60;;
2039;SDS011;1025;42.686;23.350;2022-08-01T14:23:13;2.77;;;2.30;;
2039;SDS011;1025;42.686;23.350;2022-08-01T14:25:41;1.67;;;1.57;;
2039;SDS011;1025;42.686;23.350;2022-08-01T14:28:08;1.97;;;1.87;;
2039;SDS011;1025;42.686;23.350;2022-08-01T14:30:35;4.23;;;1.87;;
2039;SDS011;1025;42.686;23.350;2022-08-01T14:33:02;1.70;;;1.70;;
2039;SDS011;1025;42.686;23.350;2022-08-01T14:35:28;2.40;;;1.37;;
2039;SDS011;1025;42.686;23.350;2022-08-01T14:37:55;1.57;;;1.50;;
2039;SDS011;1025;42.686;23.350;2022-08-01T14:40:21;1.80;;;1.70;;
2039;SDS011;1025;42.686;23.350;2022-08-01T14:42:49;1.30;;;1.30;;
2039;SDS011;1025;42.686;23.350;2022-08-01T14:45:16;1.60;;;1.50;;
2039;SDS011;1025;42.686;23.350;2022-08-01T14:47:42;1.90;;;1.80;;
2039;SDS011;1025;42.686;23.350;2022-08-01T14:50:12;1.53;;;1.43;;
2039;SDS011;1025;42.686;23.350;2022-08-01T14:52:39;1.60;;;1.50;;
2039;SDS011;1025;42.686;23.350;2022-08-01T14:55:06;2.07;;;1.97;;
2039;SDS011;1025;42.686;23.350;2022-08-01T14:57:34;1.80;;;1.70;;
2039;SDS011;1025;42.686;23.350;2022-08-01T15:00:03;3.53;;;1.93;;
2039;SDS011;1025;42.686;23.350;2022-08-01T15:02:30;2.07;;;1.97;;
2039;SDS011;1025;42.686;23.350;2022-08-01T15:04:56;1.43;;;1.33;;
2039;SDS011;1025;42.686;23.350;2022-08-01T15:07:23;1.37;;;1.30;;
2039;SDS011;1025;42.686;23.350;2022-08-01T15:09:49;2.60;;;2.40;;
2039;SDS011;1025;42.686;23.350;2022-08-01T15:12:16;1.73;;;1.63;;
2039;SDS011;1025;42.686;23.350;2022-08-01T15:14:43;1.90;;;1.73;;
2039;SDS011;1025;42.686;23.350;2022-08-01T15:17:18;1.33;;;1.33;;
2039;SDS011;1025;42.686;23.350;2022-08-01T15:19:44;1.37;;;1.37;;